Time;durP1;ratioP1;P1;durP2;ratioP2;P2;SDS_P1;SDS_P2;PMS_P1;PMS_P2;Temp;Humidity;BMP_temperature;BMP_pressure;BME280_temperature;BME280_humidity;BME280_pressure;Samples;Min_cycle;Max_cycle;Signal;HPM_P1;HPM_P2
2023/06/04 00:01:56;;;;;;;;;;;10.70;99.90;;;;;;6154524;23;19921;-74
2023/06/04 00:04:23;;;;;;;;;;;10.70;99.90;;;;;;6129213;23;19927;-74
2023/06/04 00:06:49;;;;;;;;;;;10.60;99.90;;;;;;6128417;23;20003;-73
2023/06/04 00:09:20;;;;;;;;;;;10.60;99.90;;;;;;6156926;23;19928;-73
2023/06/04 00:11:46;;;;;;;;;;;10.60;99.90;;;;;;6132344;23;19995;-73
2023/06/04 00:14:12;;;;;;;;;;;10.60;99.90;;;;;;6131256;23;19983;-73
2023/06/04 00:16:38;;;;;;;;;;;10.60;99.90;;;;;;6134161;23;20003;-74
2023/06/04 00:19:04;;;;;;;;;;;10.50;99.90;;;;;;6158789;23;19924;-74
2023/06/04 00:21:30;;;;;;;;;;;10.70;99.90;;;;;;6159139;23;19944;-74
2023/06/04 00:23:55;;;;;;;;;;;10.70;99.90;;;;;;6156605;23;19924;-74
2023/06/04 00:26:21;;;;;;;;;;;10.50;99.90;;;;;;6157729;23;20253;-74
2023/06/04 00:28:46;;;;;;;;;;;10.50;99.90;;;;;;6130751;23;19928;-74
2023/06/04 00:31:12;;;;;;;;;;;10.50;99.90;;;;;;6157310;23;19927;-74
2023/06/04 00:33:41;;;;;;;;;;;10.50;99.90;;;;;;6129966;23;20286;-75
2023/06/04 00:36:06;;;;;;;;;;;10.40;99.90;;;;;;6157008;23;19927;-74
2023/06/04 00:38:32;;;;;;;;;;;10.40;99.90;;;;;;6130850;23;19920;-74
2023/06/04 00:40:58;;;;;;;;;;;10.50;99.90;;;;;;6130024;23;19931;-74
2023/06/04 00:43:27;;;;;;;;;;;10.40;99.90;;;;;;6130633;23;19927;-74
2023/06/04 00:45:53;;;;;;;;;;;10.30;99.90;;;;;;6130727;23;19927;-74
2023/06/04 00:48:19;;;;;;;;;;;10.50;99.90;;;;;;6156598;23;19921;-74
2023/06/04 00:50:48;;;;;;;;;;;10.80;99.90;;;;;;6156866;23;19921;-73
2023/06/04 00:53:14;;;;;;;;;;;10.30;99.90;;;;;;6157129;23;19975;-73
2023/06/04 00:55:39;;;;;;;;;;;10.30;99.90;;;;;;6130016;23;19921;-73
2023/06/04 00:58:05;;;;;;;;;;;10.20;99.90;;;;;;6156391;23;19928;-72
2023/06/04 01:00:32;;;;;;;;;;;10.30;99.90;;;;;;6130710;23;19920;-72
2023/06/04 01:03:03;;;;;;;;;;;10.30;99.90;;;;;;6154822;23;20113;-72
2023/06/04 01:05:28;;;;;;;;;;;10.30;99.90;;;;;;6130791;23;19947;-73
2023/06/04 01:07:55;;;;;;;;;;;10.20;99.90;;;;;;6157224;23;20322;-72
2023/06/04 01:10:22;;;;;;;;;;;10.20;99.90;;;;;;6156363;23;19920;-72
2023/06/04 01:12:47;;;;;;;;;;;11.10;99.90;;;;;;6130890;23;19967;-72
2023/06/04 01:15:13;;;;;;;;;;;10.20;99.90;;;;;;6155628;23;20000;-72
2023/06/04 01:17:40;;;;;;;;;;;10.20;99.90;;;;;;6156067;23;19925;-72
2023/06/04 01:20:08;;;;;;;;;;;10.20;99.90;;;;;;6130370;23;19921;-73
2023/06/04 01:22:33;;;;;;;;;;;10.20;99.90;;;;;;6130874;23;19971;-73
2023/06/04 01:25:02;;;;;;;;;;;10.20;99.90;;;;;;6129151;23;20226;-73
2023/06/04 01:27:28;;;;;;;;;;;10.20;99.90;;;;;;6154605;23;19924;-72
2023/06/04 01:29:56;;;;;;;;;;;10.20;99.90;;;;;;6155887;23;19928;-72
2023/06/04 01:32:23;;;;;;;;;;;10.20;99.90;;;;;;6156332;23;20337;-72
2023/06/04 01:34:54;;;;;;;;;;;10.30;99.90;;;;;;6129712;23;19947;-72
2023/06/04 01:37:20;;;;;;;;;;;10.20;99.90;;;;;;6156432;23;19921;-73
2023/06/04 01:39:45;;;;;;;;;;;10.20;99.90;;;;;;6129973;23;19931;-73
2023/06/04 01:42:11;;;;;;;;;;;10.20;99.90;;;;;;6156547;23;19999;-73
2023/06/04 01:44:36;;;;;;;;;;;10.10;99.90;;;;;;6129462;23;19927;-73
2023/06/04 01:47:02;;;;;;;;;;;10.10;99.90;;;;;;6129578;23;19921;-73
2023/06/04 01:49:27;;;;;;;;;;;10.10;99.90;;;;;;6129946;23;19925;-73
2023/06/04 01:51:53;;;;;;;;;;;10.10;99.90;;;;;;6129163;23;19928;-73
2023/06/04 01:54:19;;;;;;;;;;;10.10;99.90;;;;;;6129801;23;20360;-73
2023/06/04 01:56:46;;;;;;;;;;;10.10;99.90;;;;;;6130109;23;19995;-72
2023/06/04 01:59:11;;;;;;;;;;;10.10;99.90;;;;;;6129005;23;19927;-73
2023/06/04 02:01:37;;;;;;;;;;;10.20;99.90;;;;;;6129862;23;20305;-73
2023/06/04 02:04:03;;;;;;;;;;;10.00;99.90;;;;;;6129489;23;20315;-73
2023/06/04 02:06:29;;;;;;;;;;;10.00;99.90;;;;;;6155759;23;19921;-74
2023/06/04 02:08:55;;;;;;;;;;;9.90;99.90;;;;;;6129765;23;19921;-73
2023/06/04 02:11:21;;;;;;;;;;;9.90;99.90;;;;;;6156475;23;19921;-73
2023/06/04 02:13:46;;;;;;;;;;;9.90;99.90;;;;;;6155706;23;19927;-73
2023/06/04 02:16:12;;;;;;;;;;;9.90;99.90;;;;;;6129639;23;20282;-73
2023/06/04 02:18:37;;;;;;;;;;;9.80;99.90;;;;;;6130512;23;19975;-73
2023/06/04 02:21:03;;;;;;;;;;;9.80;99.90;;;;;;6128864;23;19921;-73
2023/06/04 02:23:28;;;;;;;;;;;9.80;99.90;;;;;;6156680;23;19988;-73
2023/06/04 02:25:54;;;;;;;;;;;9.80;99.90;;;;;;6129362;23;20338;-72
2023/06/04 02:28:19;;;;;;;;;;;9.80;99.90;;;;;;6128968;23;19921;-73
2023/06/04 02:30:46;;;;;;;;;;;9.70;99.90;;;;;;6156536;23;19925;-72
2023/06/04 02:33:11;;;;;;;;;;;9.70;99.90;;;;;;6128963;23;20289;-73
2023/06/04 02:35:37;;;;;;;;;;;9.90;99.90;;;;;;6156029;23;19920;-73
2023/06/04 02:38:02;;;;;;;;;;;10.40;99.90;;;;;;6156413;23;19920;-73
2023/06/04 02:40:28;;;;;;;;;;;9.80;99.90;;;;;;6129295;23;19920;-73
2023/06/04 02:42:54;;;;;;;;;;;9.70;99.90;;;;;;6155940;23;19967;-72
2023/06/04 02:45:20;;;;;;;;;;;9.70;99.90;;;;;;6129368;23;20045;-73
2023/06/04 02:47:46;;;;;;;;;;;9.70;99.90;;;;;;6155661;23;20303;-73
2023/06/04 02:50:13;;;;;;;;;;;9.60;99.90;;;;;;6129154;23;20400;-74
2023/06/04 02:52:39;;;;;;;;;;;9.70;99.90;;;;;;6129820;23;19967;-73
2023/06/04 02:55:06;;;;;;;;;;;9.70;99.90;;;;;;6128702;23;20326;-73
2023/06/04 02:57:35;;;;;;;;;;;9.60;99.90;;;;;;6156094;23;19921;-73
2023/06/04 03:00:01;;;;;;;;;;;9.70;99.90;;;;;;6129080;23;20056;-73
2023/06/04 03:02:27;;;;;;;;;;;9.60;99.90;;;;;;6154626;23;19920;-72
2023/06/04 03:04:55;;;;;;;;;;;9.60;99.90;;;;;;6155793;23;19930;-73
2023/06/04 03:07:22;;;;;;;;;;;9.60;99.90;;;;;;6155752;23;19920;-73
2023/06/04 03:09:51;;;;;;;;;;;9.60;99.90;;;;;;6154581;23;19948;-73
2023/06/04 03:12:16;;;;;;;;;;;9.50;99.90;;;;;;6129483;23;19920;-73
2023/06/04 03:14:42;;;;;;;;;;;9.50;99.90;;;;;;6129369;23;19920;-73
2023/06/04 03:17:10;;;;;;;;;;;9.50;99.90;;;;;;6154326;23;19936;-73
2023/06/04 03:19:37;;;;;;;;;;;9.50;99.90;;;;;;6129599;23;19927;-72
2023/06/04 03:22:05;;;;;;;;;;;9.50;99.90;;;;;;6129245;23;19987;-73
2023/06/04 03:24:32;;;;;;;;;;;9.50;99.90;;;;;;6128455;23;20333;-73
2023/06/04 03:27:01;;;;;;;;;;;9.40;99.90;;;;;;6154741;23;19972;-74
2023/06/04 03:29:27;;;;;;;;;;;9.50;99.90;;;;;;6128867;23;20294;-73
2023/06/04 03:31:52;;;;;;;;;;;10.70;99.90;;;;;;6128858;23;19924;-73
2023/06/04 03:34:38;;;;;;;;;;;9.40;99.90;;;;;;6129592;23;19928;-74
2023/06/04 03:37:04;;;;;;;;;;;9.50;99.90;;;;;;6127453;23;19921;-74
2023/06/04 03:39:29;;;;;;;;;;;9.50;99.90;;;;;;6128997;23;19921;-74
2023/06/04 03:41:55;;;;;;;;;;;9.50;99.90;;;;;;6155072;23;19983;-74
2023/06/04 03:44:21;;;;;;;;;;;11.20;99.90;;;;;;6155117;23;20358;-73
2023/06/04 03:46:46;;;;;;;;;;;9.50;99.90;;;;;;6155881;23;19928;-73
2023/06/04 03:49:13;;;;;;;;;;;9.50;99.90;;;;;;6155347;23;20246;-76
2023/06/04 03:51:38;;;;;;;;;;;9.50;99.90;;;;;;6155438;23;19951;-74
2023/06/04 03:54:04;;;;;;;;;;;9.50;99.90;;;;;;6130513;23;20360;-76
2023/06/04 03:56:30;;;;;;;;;;;9.60;99.90;;;;;;6157609;23;19928;-76
2023/06/04 03:58:55;;;;;;;;;;;10.30;99.90;;;;;;6156630;23;20241;-76
2023/06/04 04:01:23;;;;;;;;;;;9.60;99.90;;;;;;6130976;23;19992;-76
2023/06/04 04:03:49;;;;;;;;;;;9.60;99.90;;;;;;6157929;23;19995;-76
2023/06/04 04:06:15;;;;;;;;;;;9.60;99.90;;;;;;6157224;23;19924;-77
2023/06/04 04:08:44;;;;;;;;;;;9.60;99.90;;;;;;6133183;23;20373;-73
2023/06/04 04:11:13;;;;;;;;;;;9.60;99.90;;;;;;6159674;23;19917;-71
2023/06/04 04:13:38;;;;;;;;;;;9.70;99.90;;;;;;6159565;23;19931;-72
2023/06/04 04:16:07;;;;;;;;;;;9.70;99.90;;;;;;6158828;23;19920;-72
2023/06/04 04:18:33;;;;;;;;;;;9.80;99.90;;;;;;6130839;23;19927;-73
2023/06/04 04:20:59;;;;;;;;;;;9.70;99.90;;;;;;6130465;23;19972;-73
2023/06/04 04:23:25;;;;;;;;;;;9.80;99.90;;;;;;6157045;23;19924;-72
2023/06/04 04:25:53;;;;;;;;;;;9.80;99.90;;;;;;6155997;23;20673;-73
2023/06/04 04:28:19;;;;;;;;;;;9.90;99.90;;;;;;6130887;23;20342;-73
2023/06/04 04:30:46;;;;;;;;;;;9.90;99.90;;;;;;6131027;23;19928;-73
2023/06/04 04:33:15;;;;;;;;;;;10.00;99.90;;;;;;6129996;23;19921;-72
2023/06/04 04:35:42;;;;;;;;;;;10.00;99.90;;;;;;6130691;23;19920;-72
2023/06/04 04:38:08;;;;;;;;;;;10.10;99.90;;;;;;6130860;23;20036;-73
2023/06/04 04:40:33;;;;;;;;;;;10.10;99.90;;;;;;6156356;23;19925;-73
2023/06/04 04:42:59;;;;;;;;;;;10.30;99.90;;;;;;6130550;23;19921;-73
2023/06/04 04:45:25;;;;;;;;;;;10.30;99.90;;;;;;6130894;23;19952;-73
2023/06/04 04:47:53;;;;;;;;;;;10.40;99.90;;;;;;6155491;23;19927;-73
2023/06/04 04:50:19;;;;;;;;;;;10.30;99.90;;;;;;6156965;23;20352;-73
2023/06/04 04:52:44;;;;;;;;;;;10.50;99.90;;;;;;6130867;23;19947;-73
2023/06/04 04:55:11;;;;;;;;;;;10.50;99.90;;;;;;6129088;23;20219;-73
2023/06/04 04:57:38;;;;;;;;;;;10.90;99.90;;;;;;6156844;23;20342;-73
2023/06/04 05:00:08;;;;;;;;;;;10.60;99.90;;;;;;6130784;23;19927;-73
2023/06/04 05:02:37;;;;;;;;;;;10.70;99.90;;;;;;6129548;23;19925;-73
2023/06/04 05:05:03;;;;;;;;;;;10.80;99.90;;;;;;6130270;23;19927;-73
2023/06/04 05:07:31;;;;;;;;;;;10.90;99.90;;;;;;6130696;23;19924;-73
2023/06/04 05:09:56;;;;;;;;;;;11.00;99.90;;;;;;6128935;23;19921;-73
2023/06/04 05:12:24;;;;;;;;;;;11.10;99.90;;;;;;6156827;23;20049;-73
2023/06/04 05:14:50;;;;;;;;;;;11.40;99.90;;;;;;6155715;23;19920;-73
2023/06/04 05:17:16;;;;;;;;;;;11.30;99.90;;;;;;6130296;23;19974;-72
2023/06/04 05:19:42;;;;;;;;;;;11.40;99.90;;;;;;6157052;23;20296;-73
2023/06/04 05:22:08;;;;;;;;;;;11.50;99.90;;;;;;6129730;23;20690;-73
2023/06/04 05:24:37;;;;;;;;;;;11.60;99.90;;;;;;6130037;23;19944;-73
2023/06/04 05:27:03;;;;;;;;;;;11.60;99.90;;;;;;6156493;23;19921;-73
2023/06/04 05:29:28;;;;;;;;;;;11.90;99.90;;;;;;6129688;23;19921;-73
2023/06/04 05:31:54;;;;;;;;;;;12.00;99.90;;;;;;6156581;23;19921;-73
2023/06/04 05:34:21;;;;;;;;;;;12.20;99.90;;;;;;6156890;23;19921;-73
2023/06/04 05:36:46;;;;;;;;;;;12.30;99.90;;;;;;6129595;23;19927;-73
2023/06/04 05:39:12;;;;;;;;;;;12.40;99.90;;;;;;6154629;23;19991;-72
2023/06/04 05:41:38;;;;;;;;;;;12.50;99.90;;;;;;6156959;23;19924;-73
2023/06/04 05:44:03;;;;;;;;;;;12.60;99.90;;;;;;6128523;23;20279;-73
2023/06/04 05:46:32;;;;;;;;;;;12.60;99.90;;;;;;6156639;23;19944;-73
2023/06/04 05:48:57;;;;;;;;;;;12.70;99.90;;;;;;6129845;23;19928;-73
2023/06/04 05:51:26;;;;;;;;;;;12.70;99.90;;;;;;6155666;23;19987;-72
2023/06/04 05:53:51;;;;;;;;;;;12.70;99.90;;;;;;6156086;23;20384;-74
2023/06/04 05:56:17;;;;;;;;;;;12.70;99.90;;;;;;6156493;23;19928;-72
2023/06/04 05:58:42;;;;;;;;;;;12.80;99.90;;;;;;6129226;23;19927;-71
2023/06/04 06:01:08;;;;;;;;;;;12.70;99.90;;;;;;6155581;23;19979;-72
2023/06/04 06:03:34;;;;;;;;;;;12.80;99.90;;;;;;6156693;23;19920;-73
2023/06/04 06:06:01;;;;;;;;;;;12.90;99.90;;;;;;6129037;23;19927;-72
2023/06/04 06:08:29;;;;;;;;;;;12.90;99.90;;;;;;6130125;23;19928;-72
2023/06/04 06:10:55;;;;;;;;;;;13.00;99.90;;;;;;6129450;23;19931;-72
2023/06/04 06:13:21;;;;;;;;;;;13.10;99.90;;;;;;6128656;23;20040;-72
2023/06/04 06:15:48;;;;;;;;;;;13.30;99.90;;;;;;6155870;23;19959;-71
2023/06/04 06:18:13;;;;;;;;;;;13.40;99.90;;;;;;6155648;23;19921;-70
2023/06/04 06:20:42;;;;;;;;;;;13.40;99.90;;;;;;6154756;23;19924;-72
2023/06/04 06:23:11;;;;;;;;;;;13.50;99.90;;;;;;6129105;23;20331;-73
2023/06/04 06:25:40;;;;;;;;;;;13.60;99.90;;;;;;6155508;23;20003;-73
2023/06/04 06:28:06;;;;;;;;;;;13.90;99.90;;;;;;6129308;23;19916;-70
2023/06/04 06:30:33;;;;;;;;;;;13.80;99.90;;;;;;6128327;23;20011;-72
2023/06/04 06:32:59;;;;;;;;;;;13.80;99.90;;;;;;6127965;23;19999;-71
2023/06/04 06:35:25;;;;;;;;;;;13.80;99.90;;;;;;6128765;23;19994;-72
2023/06/04 06:37:56;;;;;;;;;;;13.90;99.90;;;;;;6128992;23;19928;-71
2023/06/04 06:40:22;;;;;;;;;;;14.00;99.90;;;;;;6128700;23;19917;-71
2023/06/04 06:42:48;;;;;;;;;;;13.90;99.90;;;;;;6129888;23;19952;-73
2023/06/04 06:45:14;;;;;;;;;;;14.00;99.90;;;;;;6156448;23;19920;-71
2023/06/04 06:47:39;;;;;;;;;;;14.00;99.90;;;;;;6128902;23;20036;-70
2023/06/04 06:50:08;;;;;;;;;;;14.10;99.90;;;;;;6155216;23;19928;-71
2023/06/04 06:52:33;;;;;;;;;;;14.20;99.90;;;;;;6129714;23;19987;-69
2023/06/04 06:54:59;;;;;;;;;;;14.20;99.90;;;;;;6154859;23;19978;-72
2023/06/04 06:57:25;;;;;;;;;;;14.30;99.90;;;;;;6155320;23;20273;-72
2023/06/04 06:59:53;;;;;;;;;;;14.40;99.90;;;;;;6156216;23;19917;-72
2023/06/04 07:02:19;;;;;;;;;;;14.50;99.90;;;;;;6155287;23;19992;-71
2023/06/04 07:04:48;;;;;;;;;;;14.60;99.90;;;;;;6129308;23;20338;-72
2023/06/04 07:07:13;;;;;;;;;;;14.80;99.90;;;;;;6156359;23;19927;-72
2023/06/04 07:09:39;;;;;;;;;;;14.90;99.90;;;;;;6128625;23;19952;-72
2023/06/04 07:12:05;;;;;;;;;;;15.00;99.90;;;;;;6155494;23;20342;-72
2023/06/04 07:14:30;;;;;;;;;;;15.10;99.90;;;;;;6128785;23;20325;-72
2023/06/04 07:16:56;;;;;;;;;;;15.20;99.90;;;;;;6128824;23;19921;-72
2023/06/04 07:19:21;;;;;;;;;;;15.40;99.90;;;;;;6128944;23;19975;-72
2023/06/04 07:21:47;;;;;;;;;;;16.10;99.90;;;;;;6154557;23;20039;-73
2023/06/04 07:24:13;;;;;;;;;;;16.60;99.90;;;;;;6155635;23;19928;-73
2023/06/04 07:26:38;;;;;;;;;;;17.30;99.90;;;;;;6129616;23;19924;-73
2023/06/04 07:29:10;;;;;;;;;;;17.60;99.90;;;;;;6127932;23;19976;-72
2023/06/04 07:31:36;;;;;;;;;;;18.00;99.90;;;;;;6129372;23;19975;-72
2023/06/04 07:34:01;;;;;;;;;;;18.50;99.90;;;;;;6128570;23;19921;-72
2023/06/04 07:36:27;;;;;;;;;;;19.00;99.90;;;;;;6128107;23;19921;-72
2023/06/04 07:38:52;;;;;;;;;;;19.40;99.90;;;;;;6155234;23;20322;-72
2023/06/04 07:41:18;;;;;;;;;;;19.50;99.90;;;;;;6129584;23;20257;-72
2023/06/04 07:43:44;;;;;;;;;;;19.70;99.90;;;;;;6128545;23;19920;-72
2023/06/04 07:46:10;;;;;;;;;;;19.50;99.90;;;;;;6155236;23;19921;-73
2023/06/04 07:48:36;;;;;;;;;;;19.60;99.90;;;;;;6129238;23;19921;-72
2023/06/04 07:51:04;;;;;;;;;;;20.00;99.90;;;;;;6127692;23;19928;-73
2023/06/04 07:53:29;;;;;;;;;;;20.40;99.90;;;;;;6155488;23;19921;-72
2023/06/04 07:55:57;;;;;;;;;;;20.50;99.90;;;;;;6128643;23;19920;-71
2023/06/04 07:58:23;;;;;;;;;;;20.80;99.30;;;;;;6155655;23;19927;-72
2023/06/04 08:00:49;;;;;;;;;;;21.00;99.30;;;;;;6157327;23;19928;-72
2023/06/04 08:03:29;;;;;;;;;;;21.20;98.90;;;;;;6160315;23;19921;-73
2023/06/04 08:05:55;;;;;;;;;;;21.50;98.90;;;;;;6134135;23;19970;-78
2023/06/04 08:08:20;;;;;;;;;;;21.80;97.80;;;;;;6135778;23;20003;-81
2023/06/04 08:10:49;;;;;;;;;;;21.90;96.80;;;;;;6158571;23;19984;-74
2023/06/04 08:13:17;;;;;;;;;;;21.60;96.30;;;;;;6156421;23;19927;-78
2023/06/04 08:15:43;;;;;;;;;;;21.90;97.50;;;;;;6155395;23;19960;-78
2023/06/04 08:18:09;;;;;;;;;;;22.20;96.90;;;;;;6127570;23;19925;-78
2023/06/04 08:20:34;;;;;;;;;;;22.30;95.80;;;;;;6129200;23;19950;-77
2023/06/04 08:23:00;;;;;;;;;;;22.50;95.60;;;;;;6153759;23;19920;-81
2023/06/04 08:25:25;;;;;;;;;;;22.70;95.10;;;;;;6127732;23;20305;-80
2023/06/04 08:27:57;;;;;;;;;;;22.90;95.60;;;;;;6155408;23;19927;-82
2023/06/04 08:30:23;;;;;;;;;;;22.90;94.80;;;;;;6155572;23;20249;-83
2023/06/04 08:32:48;;;;;;;;;;;23.10;94.50;;;;;;6154009;23;20330;-81
2023/06/04 08:35:14;;;;;;;;;;;23.30;94.20;;;;;;6155632;23;19928;-82
2023/06/04 08:37:40;;;;;;;;;;;23.40;94.10;;;;;;6130004;23;19921;-82
2023/06/04 08:40:06;;;;;;;;;;;23.50;93.10;;;;;;6156131;23;19921;-79
2023/06/04 08:46:11;;;;;;;;;;;23.70;92.50;;;;;;6095016;23;20008;-74
2023/06/04 08:48:46;;;;;;;;;;;23.50;92.10;;;;;;6069035;23;20350;-76
2023/06/04 08:51:33;;;;;;;;;;;23.80;92.00;;;;;;6067914;23;19953;-79
2023/06/04 08:54:02;;;;;;;;;;;24.10;91.70;;;;;;6068827;23;19999;-80
2023/06/04 08:56:32;;;;;;;;;;;24.20;91.50;;;;;;6070158;23;19958;-76
2023/06/04 08:59:01;;;;;;;;;;;24.40;92.30;;;;;;6097936;23;19945;-76
2023/06/04 09:01:26;;;;;;;;;;;24.40;90.90;;;;;;6097476;23;19928;-77
2023/06/04 09:03:52;;;;;;;;;;;24.70;91.50;;;;;;6097329;23;19925;-78
2023/06/04 09:06:17;;;;;;;;;;;24.90;90.90;;;;;;6072163;23;20016;-80
2023/06/04 09:08:45;;;;;;;;;;;24.80;89.60;;;;;;6096695;23;19969;-77
2023/06/04 09:11:13;;;;;;;;;;;24.60;90.30;;;;;;6072098;23;20000;-77
2023/06/04 09:13:39;;;;;;;;;;;24.60;89.00;;;;;;6072437;23;19921;-78
2023/06/04 09:16:08;;;;;;;;;;;24.60;88.60;;;;;;6096570;23;19921;-78
2023/06/04 09:18:33;;;;;;;;;;;24.70;89.30;;;;;;6072512;23;19921;-83
2023/06/04 09:21:03;;;;;;;;;;;24.60;90.30;;;;;;6070684;23;19925;-75
2023/06/04 09:23:30;;;;;;;;;;;24.60;90.10;;;;;;6097908;23;20060;-74
2023/06/04 09:25:55;;;;;;;;;;;24.70;89.70;;;;;;6098001;23;19921;-74
2023/06/04 09:28:21;;;;;;;;;;;24.50;89.90;;;;;;6071288;23;20008;-75
2023/06/04 09:30:53;;;;;;;;;;;24.40;90.40;;;;;;6072018;23;20406;-75
2023/06/04 09:33:18;;;;;;;;;;;24.50;90.90;;;;;;6072078;23;19925;-75
2023/06/04 09:35:53;;;;;;;;;;;24.60;90.00;;;;;;6071014;23;20227;-75
2023/06/04 09:38:18;;;;;;;;;;;24.70;90.00;;;;;;6071175;23;19921;-75
2023/06/04 09:40:44;;;;;;;;;;;24.70;90.20;;;;;;6072069;23;19996;-75
2023/06/04 09:43:10;;;;;;;;;;;24.70;90.00;;;;;;6096188;23;20351;-75
2023/06/04 09:45:36;;;;;;;;;;;25.00;88.40;;;;;;6097654;23;19922;-75
2023/06/04 09:48:08;;;;;;;;;;;25.20;89.20;;;;;;6071106;23;20239;-75
2023/06/04 09:50:34;;;;;;;;;;;25.00;89.20;;;;;;6071048;23;19929;-75
2023/06/04 09:53:00;;;;;;;;;;;24.90;90.30;;;;;;6071352;23;19918;-75
2023/06/04 09:55:25;;;;;;;;;;;25.10;88.60;;;;;;6097546;23;19932;-74
2023/06/04 09:57:52;;;;;;;;;;;24.90;89.30;;;;;;6096386;23;20450;-75
2023/06/04 10:00:18;;;;;;;;;;;24.80;89.50;;;;;;6071980;23;19996;-74
2023/06/04 10:02:45;;;;;;;;;;;24.80;90.20;;;;;;6071809;23;19922;-74
2023/06/04 10:05:14;;;;;;;;;;;24.80;90.00;;;;;;6070934;23;19956;-74
2023/06/04 10:07:42;;;;;;;;;;;24.90;89.10;;;;;;6071019;23;20322;-77
2023/06/04 10:10:09;;;;;;;;;;;24.70;87.00;;;;;;6071689;23;20296;-77
2023/06/04 10:12:36;;;;;;;;;;;24.90;87.80;;;;;;6071148;23;19955;-76
2023/06/04 10:15:07;;;;;;;;;;;25.10;89.80;;;;;;6071262;23;19933;-76
2023/06/04 10:17:34;;;;;;;;;;;25.10;89.30;;;;;;6070821;23;20428;-76
2023/06/04 10:20:01;;;;;;;;;;;25.20;88.40;;;;;;6071575;23;19992;-76
2023/06/04 10:22:28;;;;;;;;;;;24.90;87.20;;;;;;6097070;23;19921;-76
2023/06/04 10:24:53;;;;;;;;;;;25.10;88.10;;;;;;6070703;23;19921;-76
2023/06/04 10:27:20;;;;;;;;;;;25.10;88.60;;;;;;6097580;23;19924;-75
2023/06/04 10:29:45;;;;;;;;;;;25.00;87.40;;;;;;6097390;23;19976;-74
2023/06/04 10:32:11;;;;;;;;;;;25.00;86.80;;;;;;6094949;23;20327;-76
2023/06/04 10:34:37;;;;;;;;;;;25.30;89.00;;;;;;6071956;23;19928;-75
2023/06/04 10:37:03;;;;;;;;;;;25.40;87.00;;;;;;6071086;23;19932;-75
2023/06/04 10:39:29;;;;;;;;;;;25.60;85.50;;;;;;6071194;23;19928;-76
2023/06/04 10:41:59;;;;;;;;;;;25.40;87.00;;;;;;6096222;23;20330;-75
2023/06/04 10:44:24;;;;;;;;;;;25.40;84.70;;;;;;6071308;23;19943;-74
2023/06/04 10:46:50;;;;;;;;;;;25.20;86.50;;;;;;6071192;23;19992;-76
2023/06/04 10:49:25;;;;;;;;;;;24.90;86.70;;;;;;6096898;23;19975;-75
2023/06/04 10:51:51;;;;;;;;;;;25.20;87.70;;;;;;6071767;23;19922;-75
2023/06/04 10:54:23;;;;;;;;;;;25.20;86.80;;;;;;6070924;23;19928;-75
2023/06/04 10:56:48;;;;;;;;;;;25.20;86.20;;;;;;6070687;23;19944;-75
2023/06/04 10:59:15;;;;;;;;;;;25.20;86.90;;;;;;6096786;23;20366;-76
2023/06/04 11:01:40;;;;;;;;;;;25.30;85.10;;;;;;6096755;23;19928;-75
2023/06/04 11:04:06;;;;;;;;;;;25.50;88.00;;;;;;6070840;23;19921;-73
2023/06/04 11:06:32;;;;;;;;;;;25.50;87.30;;;;;;6070669;23;19932;-71
2023/06/04 11:09:05;;;;;;;;;;;25.40;86.50;;;;;;6096271;23;20000;-74
2023/06/04 11:11:31;;;;;;;;;;;25.10;86.10;;;;;;6067179;23;20382;-73
2023/06/04 11:14:17;;;;;;;;;;;25.10;88.10;;;;;;6066656;23;20378;-74
2023/06/04 11:16:43;;;;;;;;;;;25.00;86.60;;;;;;6094979;23;20008;-74
2023/06/04 11:19:08;;;;;;;;;;;25.00;88.30;;;;;;6067179;23;20000;-74
2023/06/04 11:21:36;;;;;;;;;;;24.90;88.00;;;;;;6095136;23;19917;-74
2023/06/04 11:24:02;;;;;;;;;;;24.90;86.80;;;;;;6069277;23;20004;-75
2023/06/04 11:26:31;;;;;;;;;;;24.90;88.20;;;;;;6094410;23;19977;-74
2023/06/04 11:28:57;;;;;;;;;;;24.90;89.70;;;;;;6066085;23;19940;-74
2023/06/04 11:31:22;;;;;;;;;;;24.70;88.00;;;;;;6068777;23;20338;-74
2023/06/04 11:33:51;;;;;;;;;;;24.80;87.80;;;;;;6093949;23;19976;-74
2023/06/04 11:36:27;;;;;;;;;;;24.60;87.10;;;;;;6067430;23;19921;-73
2023/06/04 11:39:00;;;;;;;;;;;24.40;87.40;;;;;;6094467;23;19925;-75
2023/06/04 11:41:29;;;;;;;;;;;24.40;88.90;;;;;;6094406;23;19917;-74
2023/06/04 11:43:55;;;;;;;;;;;24.40;88.30;;;;;;6095270;23;19925;-74
2023/06/04 11:46:21;;;;;;;;;;;24.20;87.30;;;;;;6071103;23;19921;-74
2023/06/04 11:48:47;;;;;;;;;;;24.20;88.30;;;;;;6068298;23;20004;-74
2023/06/04 11:51:13;;;;;;;;;;;24.20;88.00;;;;;;6069490;23;19925;-73
2023/06/04 11:53:39;;;;;;;;;;;24.00;88.30;;;;;;6095938;23;19949;-73
2023/06/04 11:56:05;;;;;;;;;;;23.90;89.00;;;;;;6095652;23;19976;-74
2023/06/04 11:58:32;;;;;;;;;;;24.00;89.30;;;;;;6098819;23;19963;-74
2023/06/04 12:00:57;;;;;;;;;;;24.00;86.80;;;;;;6095172;23;19924;-74
2023/06/04 12:03:41;;;;;;;;;;;24.00;88.70;;;;;;6095559;23;20623;-74
2023/06/04 12:06:13;;;;;;;;;;;23.90;85.90;;;;;;6070891;23;19924;-73
2023/06/04 12:08:52;;;;;;;;;;;23.70;88.80;;;;;;6070901;23;19921;-74
2023/06/04 12:11:25;;;;;;;;;;;23.50;88.70;;;;;;6070845;23;20345;-74
2023/06/04 12:13:53;;;;;;;;;;;23.20;90.50;;;;;;6072403;23;19922;-73
2023/06/04 12:16:18;;;;;;;;;;;23.20;89.80;;;;;;6070617;23;19925;-75
2023/06/04 12:18:44;;;;;;;;;;;23.00;90.40;;;;;;6071355;23;20228;-77
2023/06/04 12:21:31;;;;;;;;;;;22.80;90.30;;;;;;6098649;23;19972;-76
2023/06/04 12:24:05;;;;;;;;;;;22.80;91.00;;;;;;6097123;23;20338;-74
2023/06/04 12:26:32;;;;;;;;;;;22.90;90.30;;;;;;6069588;23;19922;-74
2023/06/04 12:28:59;;;;;;;;;;;22.70;91.60;;;;;;6096861;23;19921;-73
2023/06/04 12:31:24;;;;;;;;;;;22.90;90.10;;;;;;6097948;23;20338;-74
2023/06/04 12:33:50;;;;;;;;;;;23.00;90.40;;;;;;6071455;23;19922;-74
2023/06/04 12:36:15;;;;;;;;;;;22.90;90.80;;;;;;6097586;23;19960;-74
2023/06/04 12:38:41;;;;;;;;;;;22.60;90.60;;;;;;6096569;23;19925;-74
2023/06/04 12:41:06;;;;;;;;;;;22.40;91.10;;;;;;6072170;23;19921;-75
2023/06/04 12:43:34;;;;;;;;;;;22.70;90.00;;;;;;6072016;23;19960;-74
2023/06/04 12:45:59;;;;;;;;;;;22.60;91.40;;;;;;6096866;23;19925;-74
2023/06/04 12:48:25;;;;;;;;;;;22.80;91.10;;;;;;6072145;23;20335;-75
2023/06/04 12:50:50;;;;;;;;;;;22.80;90.40;;;;;;6071633;23;20254;-75
2023/06/04 12:53:16;;;;;;;;;;;22.80;90.20;;;;;;6096705;23;19917;-75
2023/06/04 12:55:41;;;;;;;;;;;22.90;90.90;;;;;;6097722;23;19925;-76
2023/06/04 12:58:07;;;;;;;;;;;22.90;90.30;;;;;;6102470;23;19929;-78
2023/06/04 13:00:33;;;;;;;;;;;22.50;90.10;;;;;;6072108;23;20203;-76
2023/06/04 13:02:59;;;;;;;;;;;22.50;91.60;;;;;;6071640;23;20394;-75
2023/06/04 13:05:25;;;;;;;;;;;22.60;90.80;;;;;;6071629;23;19925;-74
2023/06/04 13:07:51;;;;;;;;;;;22.60;91.00;;;;;;6096071;23;20330;-74
2023/06/04 13:10:16;;;;;;;;;;;22.40;90.70;;;;;;6072070;23;19925;-72
2023/06/04 13:12:42;;;;;;;;;;;22.30;91.20;;;;;;6071190;23;19977;-71
2023/06/04 13:15:08;;;;;;;;;;;22.40;91.00;;;;;;6069812;23;20006;-70
2023/06/04 13:17:33;;;;;;;;;;;22.40;91.30;;;;;;6097272;23;19933;-71
2023/06/04 13:19:59;;;;;;;;;;;22.20;90.90;;;;;;6071400;23;19924;-75
2023/06/04 13:22:24;;;;;;;;;;;22.40;91.90;;;;;;6070202;23;19929;-71
2023/06/04 13:24:50;;;;;;;;;;;22.30;92.00;;;;;;6097115;23;19925;-73
2023/06/04 13:27:16;;;;;;;;;;;22.40;90.70;;;;;;6070647;23;20264;-72
2023/06/04 13:29:41;;;;;;;;;;;22.40;91.50;;;;;;6097376;23;19921;-71
2023/06/04 13:32:07;;;;;;;;;;;22.20;91.20;;;;;;6096982;23;20308;-70
2023/06/04 13:34:32;;;;;;;;;;;22.10;91.10;;;;;;6070295;23;20020;-72
2023/06/04 13:36:58;;;;;;;;;;;22.00;91.40;;;;;;6070220;23;19921;-70
2023/06/04 13:39:23;;;;;;;;;;;21.90;91.90;;;;;;6096505;23;19922;-71
2023/06/04 13:41:49;;;;;;;;;;;21.80;91.80;;;;;;6069714;23;19925;-71
2023/06/04 13:44:14;;;;;;;;;;;22.00;91.50;;;;;;6096472;23;20298;-69
2023/06/04 13:46:41;;;;;;;;;;;21.90;92.00;;;;;;6096865;23;19961;-69
2023/06/04 13:49:06;;;;;;;;;;;21.70;92.20;;;;;;6069741;23;20275;-69
2023/06/04 13:51:32;;;;;;;;;;;21.80;91.70;;;;;;6095995;23;19969;-70
2023/06/04 13:53:58;;;;;;;;;;;21.90;92.80;;;;;;6096582;23;19942;-70
2023/06/04 13:56:25;;;;;;;;;;;21.80;92.10;;;;;;6095807;23;19922;-70
2023/06/04 13:58:50;;;;;;;;;;;21.70;92.50;;;;;;6070864;23;20354;-70
2023/06/04 14:01:16;;;;;;;;;;;21.70;91.80;;;;;;6096038;23;19921;-69
2023/06/04 14:03:42;;;;;;;;;;;21.40;92.20;;;;;;6070210;23;19925;-71
2023/06/04 14:06:07;;;;;;;;;;;21.40;92.60;;;;;;6095526;23;19957;-73
2023/06/04 14:08:33;;;;;;;;;;;21.30;92.40;;;;;;6069161;23;19918;-71
2023/06/04 14:10:58;;;;;;;;;;;21.40;92.70;;;;;;6068503;23;19921;-71
2023/06/04 14:13:24;;;;;;;;;;;21.40;92.10;;;;;;6096657;23;19921;-72
2023/06/04 14:15:50;;;;;;;;;;;21.50;92.40;;;;;;6095372;23;19921;-72
2023/06/04 14:18:16;;;;;;;;;;;21.30;92.30;;;;;;6069667;23;19921;-70
2023/06/04 14:20:42;;;;;;;;;;;21.30;92.40;;;;;;6096265;23;19996;-69